createdAt,value
2023-01-19T00:00:21.723Z,1.25
2023-01-19T00:02:48.788Z,1.50
2023-01-19T00:05:15.761Z,3.47
2023-01-19T00:07:42.911Z,1.60
2023-01-19T00:10:10.592Z,1.58
2023-01-19T00:12:37.435Z,3.15
2023-01-19T00:15:04.861Z,1.65
2023-01-19T00:17:31.759Z,4.15
2023-01-19T00:19:58.620Z,4.18
2023-01-19T00:22:25.509Z,3.83
2023-01-19T00:24:52.391Z,4.35
2023-01-19T00:27:19.313Z,4.18
2023-01-19T00:29:46.172Z,2.08
2023-01-19T00:32:13.063Z,6.18
2023-01-19T00:34:42.669Z,4.60
2023-01-19T00:37:10.182Z,4.30
2023-01-19T00:39:37.051Z,5.20
2023-01-19T00:42:22.438Z,5.13
2023-01-19T00:44:49.263Z,3.10
2023-01-19T00:47:16.129Z,3.05
2023-01-19T00:49:42.932Z,2.30
2023-01-19T00:52:09.778Z,1.48
2023-01-19T00:54:36.661Z,2.63
2023-01-19T00:57:03.615Z,2.43
2023-01-19T00:59:30.427Z,1.30
2023-01-19T01:01:57.402Z,1.15
2023-01-19T01:04:24.407Z,10.57
2023-01-19T01:06:51.269Z,17.42
2023-01-19T01:09:18.139Z,19.88
2023-01-19T01:11:45.074Z,15.18
2023-01-19T01:14:12.736Z,10.43
2023-01-19T01:16:40.002Z,6.70
2023-01-19T01:19:07.260Z,2.97
2023-01-19T01:21:34.774Z,1.75
2023-01-19T01:24:02.128Z,1.83
2023-01-19T01:26:29.041Z,1.40
2023-01-19T01:28:55.896Z,0.57
2023-01-19T01:31:22.746Z,0.47
2023-01-19T01:33:49.598Z,0.73
2023-01-19T01:36:16.539Z,0.40
2023-01-19T01:38:43.369Z,0.40
2023-01-19T01:41:10.638Z,0.68
2023-01-19T01:43:52.984Z,2.85
2023-01-19T01:46:20.753Z,0.77
2023-01-19T01:49:11.273Z,0.45
2023-01-19T01:51:46.987Z,0.50
2023-01-19T01:54:25.969Z,0.52
2023-01-19T01:56:55.983Z,0.40
2023-01-19T01:59:34.871Z,1.40
2023-01-19T02:02:25.900Z,0.52
2023-01-19T02:07:51.512Z,0.40
2023-01-19T02:10:36.879Z,0.50
2023-01-19T02:13:22.520Z,0.70
2023-01-19T02:15:52.665Z,0.75
2023-01-19T02:18:22.466Z,0.82
2023-01-19T02:20:59.960Z,2.42
2023-01-19T02:23:45.248Z,0.50
2023-01-19T02:26:42.984Z,1.45
2023-01-19T02:29:13.364Z,1.13
2023-01-19T02:31:41.144Z,0.40
2023-01-19T02:34:10.431Z,1.60
2023-01-19T02:36:49.485Z,0.90
2023-01-19T02:39:20.684Z,1.50
2023-01-19T02:41:52.690Z,1.13
2023-01-19T02:44:21.370Z,1.38
2023-01-19T02:46:48.452Z,2.35
2023-01-19T02:49:15.382Z,1.75
2023-01-19T02:51:44.279Z,1.70
2023-01-19T02:54:41.673Z,0.95
2023-01-19T02:57:25.858Z,1.00
2023-01-19T03:00:02.587Z,1.27
2023-01-19T03:02:48.274Z,1.73
2023-01-19T03:05:34.191Z,0.60
2023-01-19T03:08:19.737Z,1.85
2023-01-19T03:11:08.929Z,0.77
2023-01-19T03:13:47.685Z,2.72
2023-01-19T03:16:38.527Z,1.65
2023-01-19T03:19:28.452Z,1.75
2023-01-19T03:21:59.353Z,0.70
2023-01-19T03:24:31.512Z,0.75
2023-01-19T03:27:06.993Z,2.67
2023-01-19T03:29:36.990Z,0.90
2023-01-19T03:32:10.508Z,1.77
2023-01-19T03:34:39.413Z,2.17
2023-01-19T03:37:10.110Z,1.23
2023-01-19T03:39:37.426Z,1.50
2023-01-19T03:42:11.699Z,2.08
2023-01-19T03:44:40.386Z,3.05
2023-01-19T03:47:09.945Z,1.33
2023-01-19T03:49:38.441Z,1.90
2023-01-19T03:52:06.002Z,2.28
2023-01-19T03:54:32.916Z,3.00
2023-01-19T03:56:59.773Z,1.95
2023-01-19T03:59:26.916Z,2.78
2023-01-19T04:01:53.849Z,2.85
2023-01-19T04:04:20.730Z,3.05
2023-01-19T04:06:47.662Z,3.50
2023-01-19T04:09:14.490Z,4.80
2023-01-19T04:11:41.297Z,3.90
2023-01-19T04:14:08.175Z,5.43
2023-01-19T04:16:35.264Z,6.18
2023-01-19T04:19:02.169Z,7.88
2023-01-19T04:21:29.032Z,8.40
2023-01-19T04:23:55.834Z,9.18
2023-01-19T04:26:23.400Z,10.27
2023-01-19T04:28:50.269Z,12.27
2023-01-19T04:31:17.103Z,11.85
2023-01-19T04:33:43.907Z,14.57
2023-01-19T04:36:10.817Z,14.00
2023-01-19T04:38:37.732Z,13.68
2023-01-19T04:41:04.746Z,15.68
2023-01-19T04:43:31.675Z,13.98
2023-01-19T04:45:59.100Z,16.80
2023-01-19T04:48:25.937Z,17.83
2023-01-19T04:50:52.912Z,15.30
2023-01-19T04:53:19.915Z,18.13
2023-01-19T04:55:46.904Z,17.05
2023-01-19T04:58:14.048Z,17.48
2023-01-19T05:00:40.959Z,19.27
2023-01-19T05:03:07.812Z,17.00
2023-01-19T05:05:34.917Z,21.00
2023-01-19T05:08:01.755Z,21.30
2023-01-19T05:10:28.772Z,18.30
2023-01-19T05:12:55.990Z,19.40
2023-01-19T05:15:23.573Z,23.70
2023-01-19T05:17:50.636Z,19.73
2023-01-19T05:20:17.686Z,19.02
2023-01-19T05:22:50.631Z,28.35
2023-01-19T05:25:17.578Z,21.98
2023-01-19T05:27:44.952Z,19.75
2023-01-19T05:30:13.566Z,21.55
2023-01-19T05:32:40.827Z,20.23
2023-01-19T05:35:08.426Z,20.75
2023-01-19T05:37:35.252Z,19.15
2023-01-19T05:40:02.178Z,21.45
2023-01-19T05:42:30.783Z,19.83
2023-01-19T05:44:59.587Z,21.35
2023-01-19T05:47:26.728Z,19.00
2023-01-19T05:49:53.591Z,17.13
2023-01-19T05:52:20.438Z,22.25
2023-01-19T05:54:48.267Z,21.90
2023-01-19T05:57:15.231Z,20.20
2023-01-19T05:59:42.113Z,19.75
2023-01-19T06:02:09.093Z,20.05
2023-01-19T06:04:36.019Z,20.35
2023-01-19T06:07:03.010Z,23.45
2023-01-19T06:09:29.871Z,23.48
2023-01-19T06:11:57.824Z,21.00
2023-01-19T06:14:25.163Z,20.98
2023-01-19T06:16:52.608Z,20.88
2023-01-19T06:19:19.560Z,19.02
2023-01-19T06:21:52.201Z,21.15
2023-01-19T06:24:19.602Z,20.58
2023-01-19T06:26:46.556Z,19.40
2023-01-19T06:29:13.848Z,21.70
2023-01-19T06:31:41.171Z,23.65
2023-01-19T06:34:08.243Z,22.25
2023-01-19T06:36:35.113Z,21.05
2023-01-19T06:39:06.053Z,18.02
2023-01-19T06:41:34.133Z,17.48
2023-01-19T06:44:01.404Z,16.85
2023-01-19T06:46:28.489Z,21.73
2023-01-19T06:48:55.549Z,19.75
2023-01-19T06:51:23.158Z,17.70
2023-01-19T06:53:50.294Z,16.77
2023-01-19T06:56:17.119Z,18.30
2023-01-19T06:58:46.673Z,17.17
2023-01-19T07:01:13.948Z,19.73
2023-01-19T07:03:40.909Z,16.38
2023-01-19T07:06:07.931Z,19.52
2023-01-19T07:08:38.276Z,19.70
2023-01-19T07:11:25.729Z,19.33
2023-01-19T07:13:55.561Z,18.70
2023-01-19T07:16:23.217Z,18.10
2023-01-19T07:18:50.287Z,16.75
2023-01-19T07:21:17.405Z,17.70
2023-01-19T07:23:44.246Z,17.08
2023-01-19T07:26:11.285Z,20.48
2023-01-19T07:28:38.209Z,19.33
2023-01-19T07:31:05.721Z,15.57
2023-01-19T07:33:33.079Z,18.25
2023-01-19T07:35:59.932Z,18.23
2023-01-19T07:38:26.927Z,22.95
2023-01-19T07:41:06.808Z,18.83
2023-01-19T07:43:34.622Z,13.57
2023-01-19T07:46:03.537Z,21.83
2023-01-19T07:48:30.508Z,18.05
2023-01-19T07:51:05.869Z,19.08
2023-01-19T07:53:32.971Z,19.00
2023-01-19T07:55:59.877Z,19.98
2023-01-19T07:58:27.091Z,23.52
2023-01-19T08:00:54.063Z,19.42
2023-01-19T08:03:21.075Z,18.02
2023-01-19T08:05:53.007Z,18.52
2023-01-19T08:08:20.386Z,20.05
2023-01-19T08:10:51.571Z,16.13
2023-01-19T08:13:18.713Z,17.50
2023-01-19T08:15:45.765Z,19.60
2023-01-19T08:18:15.689Z,21.85
2023-01-19T08:20:42.676Z,22.08
2023-01-19T08:23:09.731Z,19.85
2023-01-19T08:25:45.244Z,24.55
2023-01-19T08:28:15.083Z,16.27
2023-01-19T08:30:44.515Z,20.85
2023-01-19T08:33:14.560Z,13.57
2023-01-19T08:35:42.923Z,19.10
2023-01-19T08:38:10.871Z,22.50
2023-01-19T08:40:39.677Z,11.98
2023-01-19T08:43:12.929Z,13.48
2023-01-19T08:45:46.625Z,17.63
2023-01-19T08:48:14.239Z,16.13
2023-01-19T08:50:41.215Z,14.50
2023-01-19T08:53:08.346Z,18.65
2023-01-19T08:55:36.562Z,22.00
2023-01-19T08:58:05.261Z,17.27
2023-01-19T09:00:37.959Z,13.48
2023-01-19T09:03:11.294Z,23.02
2023-01-19T09:05:39.144Z,15.13
2023-01-19T09:08:09.286Z,15.73
2023-01-19T09:10:37.988Z,16.85
2023-01-19T09:13:11.045Z,14.40
2023-01-19T09:15:39.505Z,15.68
2023-01-19T09:18:13.779Z,15.77
2023-01-19T09:20:42.799Z,13.35
2023-01-19T09:23:11.229Z,24.10
2023-01-19T09:25:39.291Z,15.48
2023-01-19T09:28:07.746Z,16.73
2023-01-19T09:30:37.201Z,29.35
2023-01-19T09:33:06.458Z,23.00
2023-01-19T09:35:34.755Z,16.65
2023-01-19T09:38:01.942Z,24.13
2023-01-19T09:40:29.800Z,14.80
2023-01-19T09:43:06.338Z,17.55
2023-01-19T09:45:46.148Z,18.52
2023-01-19T09:48:19.107Z,13.23
2023-01-19T09:50:48.432Z,20.73
2023-01-19T09:53:25.221Z,20.27
2023-01-19T09:55:52.471Z,20.63
2023-01-19T09:58:19.771Z,21.60
2023-01-19T10:00:56.248Z,21.15
2023-01-19T10:03:24.428Z,14.32
2023-01-19T10:06:03.806Z,18.58
2023-01-19T10:09:15.286Z,14.27
2023-01-19T10:11:55.547Z,16.13
2023-01-19T10:14:44.638Z,21.27
2023-01-19T10:17:23.099Z,31.65
2023-01-19T10:19:54.205Z,16.92
2023-01-19T10:22:24.096Z,23.58
2023-01-19T10:25:06.878Z,20.67
2023-01-19T10:27:37.701Z,16.80
2023-01-19T10:30:07.629Z,18.57
2023-01-19T10:32:38.834Z,20.05
2023-01-19T10:35:21.733Z,14.00
2023-01-19T10:37:49.502Z,19.00
2023-01-19T10:40:27.398Z,16.23
2023-01-19T10:42:54.627Z,18.00
2023-01-19T10:45:27.255Z,15.80
2023-01-19T10:47:57.754Z,16.65
2023-01-19T10:50:30.768Z,19.25
2023-01-19T10:53:02.063Z,18.02
2023-01-19T10:55:30.545Z,20.48
2023-01-19T10:57:58.776Z,15.88
2023-01-19T11:00:34.433Z,25.05
2023-01-19T11:03:01.988Z,21.90
2023-01-19T11:05:32.087Z,34.97
2023-01-19T11:07:59.077Z,21.58
2023-01-19T11:10:30.285Z,18.40
2023-01-19T11:13:12.947Z,25.33
2023-01-19T11:16:16.458Z,21.05
2023-01-19T11:18:44.325Z,18.42
2023-01-19T11:21:16.644Z,21.27
2023-01-19T11:23:53.190Z,28.52
2023-01-19T11:26:31.353Z,26.58
2023-01-19T11:29:00.734Z,18.30
2023-01-19T11:31:31.398Z,20.67
2023-01-19T11:34:22.838Z,30.52
2023-01-19T11:37:18.378Z,24.90
2023-01-19T11:39:53.851Z,39.80
2023-01-19T11:42:21.659Z,29.08
2023-01-19T11:45:00.326Z,26.50
2023-01-19T11:47:42.367Z,28.63
2023-01-19T11:50:36.467Z,24.55
2023-01-19T11:53:16.874Z,27.02
2023-01-19T11:56:04.852Z,32.97
2023-01-19T11:58:37.750Z,26.80
2023-01-19T12:01:14.484Z,23.98
2023-01-19T12:03:54.750Z,24.67
2023-01-19T12:06:44.824Z,25.50
2023-01-19T12:09:31.214Z,29.30
2023-01-19T12:12:04.133Z,31.73
2023-01-19T12:15:08.226Z,24.95
2023-01-19T12:17:58.536Z,33.28
2023-01-19T12:20:36.715Z,39.25
2023-01-19T12:23:24.503Z,28.63
2023-01-19T12:25:56.819Z,26.25
2023-01-19T12:28:31.760Z,38.20
2023-01-19T12:31:01.077Z,31.60
2023-01-19T12:33:37.771Z,29.00
2023-01-19T12:36:04.886Z,25.98
2023-01-19T12:38:40.880Z,28.73
2023-01-19T12:41:36.987Z,25.60
2023-01-19T12:44:14.012Z,24.73
2023-01-19T12:46:51.761Z,23.50
2023-01-19T12:49:39.213Z,24.17
2023-01-19T12:52:28.639Z,26.98
2023-01-19T12:55:13.332Z,24.65
2023-01-19T12:57:41.774Z,27.92
2023-01-19T13:00:30.427Z,24.10
2023-01-19T13:03:03.191Z,27.65
2023-01-19T13:05:38.869Z,41.45
2023-01-19T13:08:06.291Z,27.55
2023-01-19T13:11:05.140Z,21.73
2023-01-19T13:13:42.396Z,31.85
2023-01-19T13:16:29.816Z,25.05
2023-01-19T13:19:05.426Z,32.00
2023-01-19T13:21:34.715Z,30.42
2023-01-19T13:24:05.628Z,25.65
2023-01-19T13:26:41.541Z,25.80
2023-01-19T13:29:15.783Z,33.10
2023-01-19T13:31:52.774Z,28.35
2023-01-19T13:34:24.408Z,21.10
2023-01-19T13:39:27.934Z,17.85
2023-01-19T13:41:59.310Z,21.80
2023-01-19T13:44:29.892Z,21.88
2023-01-19T13:46:59.386Z,18.40
2023-01-19T13:49:35.245Z,19.45
2023-01-19T13:52:12.827Z,20.83
2023-01-19T13:54:54.979Z,21.88
2023-01-19T13:57:26.039Z,20.25
2023-01-19T14:00:16.859Z,20.60
2023-01-19T14:03:17.847Z,19.55
2023-01-19T14:05:45.209Z,21.48
2023-01-19T14:08:13.481Z,18.13
2023-01-19T14:10:56.485Z,22.95
2023-01-19T14:13:30.938Z,21.35
2023-01-19T14:16:01.297Z,23.85
2023-01-19T14:18:30.249Z,26.80
2023-01-19T14:21:01.471Z,36.40
2023-01-19T14:23:49.401Z,28.58
2023-01-19T14:26:45.578Z,38.83
2023-01-19T14:29:32.873Z,31.45
2023-01-19T14:32:18.481Z,26.88
2023-01-19T14:35:04.278Z,25.83
2023-01-19T14:37:46.080Z,58.00
2023-01-19T14:40:15.655Z,38.65
2023-01-19T14:42:53.764Z,39.42
2023-01-19T14:45:22.370Z,31.60
2023-01-19T14:48:03.164Z,23.92
2023-01-19T14:50:36.845Z,30.45
2023-01-19T14:53:07.420Z,24.67
2023-01-19T14:55:44.466Z,22.58
2023-01-19T14:58:13.324Z,23.10
2023-01-19T15:00:41.158Z,22.75
2023-01-19T15:03:09.935Z,28.83
2023-01-19T15:05:42.161Z,26.42
2023-01-19T15:08:14.908Z,31.67
2023-01-19T15:10:41.859Z,25.10
2023-01-19T15:13:18.904Z,27.17
2023-01-19T15:15:45.839Z,24.40
2023-01-19T15:18:17.235Z,24.70
2023-01-19T15:20:44.055Z,23.92
2023-01-19T15:23:11.960Z,23.58
2023-01-19T15:25:39.632Z,22.38
2023-01-19T15:28:13.004Z,20.25
2023-01-19T15:30:40.103Z,32.53
2023-01-19T15:33:09.411Z,26.13
2023-01-19T15:35:36.249Z,32.30
2023-01-19T15:38:03.068Z,31.58
2023-01-19T15:40:31.567Z,28.92
2023-01-19T15:42:58.431Z,27.40
2023-01-19T15:45:31.433Z,31.02
2023-01-19T15:47:58.603Z,22.20
2023-01-19T15:50:26.163Z,29.25
2023-01-19T15:52:53.196Z,29.90
2023-01-19T15:55:20.125Z,32.55
2023-01-19T15:57:48.042Z,31.75
2023-01-19T16:00:15.818Z,36.63
2023-01-19T16:02:42.663Z,36.53
2023-01-19T16:05:10.188Z,39.10
2023-01-19T16:07:37.447Z,36.60
2023-01-19T16:10:06.410Z,35.92
2023-01-19T16:12:33.271Z,30.27
2023-01-19T16:15:00.086Z,30.95
2023-01-19T16:17:27.703Z,31.27
2023-01-19T16:19:54.625Z,30.05
2023-01-19T16:22:21.464Z,31.13
2023-01-19T16:24:48.294Z,61.33
2023-01-19T16:27:15.102Z,55.28
2023-01-19T16:29:41.937Z,52.45
2023-01-19T16:32:08.776Z,39.88
2023-01-19T16:34:35.630Z,39.30
2023-01-19T16:37:02.470Z,33.03
2023-01-19T16:39:29.331Z,38.97
2023-01-19T16:41:56.155Z,47.47
2023-01-19T16:44:23.132Z,32.08
2023-01-19T16:46:50.108Z,90.95
2023-01-19T16:49:23.025Z,52.38
2023-01-19T16:51:50.647Z,43.35
2023-01-19T16:54:23.255Z,40.88
2023-01-19T16:56:50.173Z,34.13
2023-01-19T16:59:17.707Z,31.88
2023-01-19T17:01:45.568Z,35.45
2023-01-19T17:04:13.313Z,39.33
2023-01-19T17:06:40.624Z,43.83
2023-01-19T17:09:09.472Z,41.08
2023-01-19T17:11:36.960Z,34.53
2023-01-19T17:14:10.217Z,36.72
2023-01-19T17:16:37.299Z,37.67
2023-01-19T17:19:07.054Z,33.03
2023-01-19T17:21:34.309Z,36.97
2023-01-19T17:24:01.992Z,41.20
2023-01-19T17:26:30.976Z,36.33
2023-01-19T17:29:02.174Z,42.85
2023-01-19T17:31:30.031Z,38.30
2023-01-19T17:33:57.044Z,37.30
2023-01-19T17:36:25.630Z,39.45
2023-01-19T17:38:53.946Z,37.33
2023-01-19T17:41:24.134Z,38.40
2023-01-19T17:43:52.161Z,43.15
2023-01-19T17:46:21.287Z,37.67
2023-01-19T17:49:07.899Z,42.17
2023-01-19T17:51:35.169Z,49.25
2023-01-19T17:54:02.077Z,42.28
2023-01-19T17:56:33.101Z,42.53
2023-01-19T17:58:59.902Z,42.35
2023-01-19T18:01:29.366Z,37.28
2023-01-19T18:03:57.162Z,38.17
2023-01-19T18:06:24.081Z,37.85
2023-01-19T18:08:52.501Z,39.42
2023-01-19T18:11:20.795Z,43.17
2023-01-19T18:13:49.615Z,39.58
2023-01-19T18:16:20.224Z,39.05
2023-01-19T18:18:49.424Z,40.28
2023-01-19T18:21:17.224Z,40.92
2023-01-19T18:23:45.204Z,46.45
2023-01-19T18:26:17.899Z,44.92
2023-01-19T18:28:45.220Z,51.08
2023-01-19T18:31:15.374Z,46.83
2023-01-19T18:33:42.605Z,52.47
2023-01-19T18:36:09.959Z,47.17
2023-01-19T18:38:38.038Z,55.67
2023-01-19T18:41:08.199Z,54.03
2023-01-19T18:43:35.338Z,56.63
2023-01-19T18:46:02.354Z,58.30
2023-01-19T18:48:29.564Z,58.50
2023-01-19T18:50:56.741Z,70.82
2023-01-19T18:53:24.424Z,70.68
2023-01-19T18:55:57.228Z,62.45
2023-01-19T18:58:24.782Z,62.35
2023-01-19T19:00:51.727Z,56.08
2023-01-19T19:03:18.596Z,62.17
2023-01-19T19:05:45.490Z,59.17
2023-01-19T19:08:12.521Z,58.47
2023-01-19T19:10:41.778Z,53.30
2023-01-19T19:13:11.191Z,65.70
2023-01-19T19:15:38.164Z,66.30
2023-01-19T19:18:05.084Z,66.32
2023-01-19T19:20:31.909Z,66.15
2023-01-19T19:22:58.764Z,68.65
2023-01-19T19:25:25.566Z,69.47
2023-01-19T19:27:53.000Z,66.90
2023-01-19T19:30:20.923Z,57.45
2023-01-19T19:32:56.112Z,59.78
2023-01-19T19:35:26.310Z,60.53
2023-01-19T19:37:57.460Z,57.70
2023-01-19T19:40:28.632Z,55.13
2023-01-19T19:42:58.464Z,55.72
2023-01-19T19:45:25.683Z,58.17
2023-01-19T19:47:52.523Z,61.80
2023-01-19T19:50:19.477Z,70.07
2023-01-19T19:52:46.390Z,73.50
2023-01-19T19:55:13.282Z,73.18
2023-01-19T19:57:40.531Z,72.88
2023-01-19T20:00:08.594Z,71.00
2023-01-19T20:02:35.533Z,66.32
2023-01-19T20:05:02.478Z,64.55
2023-01-19T20:07:29.443Z,62.33
2023-01-19T20:09:56.309Z,57.10
2023-01-19T20:12:23.232Z,68.00
2023-01-19T20:14:50.104Z,62.15
2023-01-19T20:17:17.092Z,60.38
2023-01-19T20:19:45.640Z,64.85
2023-01-19T20:22:12.810Z,64.45
2023-01-19T20:24:39.646Z,59.72
2023-01-19T20:27:06.504Z,58.08
2023-01-19T20:29:33.400Z,62.65
2023-01-19T20:32:00.323Z,54.63
2023-01-19T20:34:33.059Z,55.42
2023-01-19T20:37:01.783Z,59.78
2023-01-19T20:39:30.315Z,50.92
2023-01-19T20:41:57.414Z,53.72
2023-01-19T20:44:26.407Z,49.45
2023-01-19T20:46:54.054Z,55.17
2023-01-19T20:49:21.449Z,66.68
2023-01-19T20:51:48.725Z,59.00
2023-01-19T20:54:18.337Z,65.90
2023-01-19T20:56:45.351Z,51.33
2023-01-19T20:59:13.167Z,53.72
2023-01-19T21:01:41.095Z,49.08
2023-01-19T21:04:08.723Z,47.10
2023-01-19T21:06:35.747Z,46.53
2023-01-19T21:09:03.331Z,46.35
2023-01-19T21:11:30.358Z,45.00
2023-01-19T21:13:57.316Z,43.67
2023-01-19T21:16:26.641Z,51.90
2023-01-19T21:18:53.866Z,59.75
2023-01-19T21:21:30.384Z,73.07
2023-01-19T21:23:59.792Z,45.08
2023-01-19T21:26:26.846Z,53.25
2023-01-19T21:28:53.818Z,49.17
2023-01-19T21:31:23.104Z,55.00
2023-01-19T21:33:53.468Z,61.30
2023-01-19T21:36:22.566Z,48.58
2023-01-19T21:38:51.473Z,51.72
2023-01-19T21:41:18.952Z,50.00
2023-01-19T21:43:46.306Z,47.90
2023-01-19T21:46:21.739Z,52.95
2023-01-19T21:48:48.971Z,52.70
2023-01-19T21:51:16.194Z,50.30
2023-01-19T21:53:43.269Z,42.67
2023-01-19T21:56:11.356Z,42.05
2023-01-19T21:58:38.839Z,44.70
2023-01-19T22:01:13.658Z,41.25
2023-01-19T22:03:41.617Z,43.03
2023-01-19T22:06:10.965Z,37.97
2023-01-19T22:08:38.023Z,40.58
2023-01-19T22:11:06.438Z,45.65
2023-01-19T22:13:34.809Z,42.28
2023-01-19T22:16:03.755Z,44.15
2023-01-19T22:18:30.827Z,47.65
2023-01-19T22:21:12.714Z,49.88
2023-01-19T22:23:39.998Z,45.47
2023-01-19T22:26:08.040Z,47.13
2023-01-19T22:28:35.874Z,56.83
2023-01-19T22:31:14.653Z,51.60
2023-01-19T22:33:42.647Z,51.03
2023-01-19T22:36:15.686Z,43.17
2023-01-19T22:38:44.149Z,39.42
2023-01-19T22:41:17.810Z,42.65
2023-01-19T22:43:45.023Z,40.25
2023-01-19T22:46:12.311Z,35.80
2023-01-19T22:48:40.528Z,42.00
2023-01-19T22:51:07.692Z,39.33
2023-01-19T22:53:34.636Z,36.85
2023-01-19T22:56:08.973Z,32.58
2023-01-19T22:58:35.817Z,30.73
2023-01-19T23:01:07.566Z,34.00
2023-01-19T23:03:35.116Z,33.83
2023-01-19T23:06:11.475Z,37.38
2023-01-19T23:08:39.178Z,33.17
2023-01-19T23:11:07.887Z,30.42
2023-01-19T23:13:34.931Z,33.35
2023-01-19T23:16:02.732Z,29.90
2023-01-19T23:18:30.268Z,34.13
2023-01-19T23:21:15.651Z,33.35
2023-01-19T23:23:43.661Z,37.92
2023-01-19T23:26:16.171Z,28.98
2023-01-19T23:28:43.516Z,35.00
2023-01-19T23:31:19.048Z,29.20
2023-01-19T23:33:45.965Z,27.02
2023-01-19T23:36:14.125Z,29.02
2023-01-19T23:38:42.074Z,28.25
2023-01-19T23:41:09.054Z,32.33
2023-01-19T23:43:35.909Z,26.77
2023-01-19T23:46:08.190Z,32.03
2023-01-19T23:48:36.065Z,24.08
2023-01-19T23:51:11.401Z,30.33
2023-01-19T23:53:38.561Z,28.85
2023-01-19T23:56:15.812Z,23.67
2023-01-19T23:58:42.636Z,26.95
